createdAt,value
2023-02-17T00:00:14.286Z,0
2023-02-17T00:01:14.429Z,0
2023-02-17T00:02:14.559Z,1
2023-02-17T00:03:14.798Z,1
2023-02-17T00:04:14.630Z,1
2023-02-17T00:05:14.213Z,1
2023-02-17T00:06:15.675Z,1
2023-02-17T00:07:14.634Z,1
2023-02-17T00:08:14.334Z,1
2023-02-17T00:09:14.254Z,1
2023-02-17T00:10:14.752Z,1
2023-02-17T00:11:14.693Z,1
2023-02-17T00:12:14.512Z,1
2023-02-17T00:13:14.485Z,1
2023-02-17T00:14:14.227Z,1
2023-02-17T00:15:14.868Z,1
2023-02-17T00:16:15.866Z,1
2023-02-17T00:17:14.102Z,1
2023-02-17T00:18:14.104Z,1
2023-02-17T00:19:14.741Z,1
2023-02-17T00:20:14.439Z,1
2023-02-17T00:21:14.246Z,1
2023-02-17T00:22:14.975Z,1
2023-02-17T00:23:14.660Z,1
2023-02-17T00:24:14.396Z,1
2023-02-17T00:25:14.212Z,1
2023-02-17T00:26:15.539Z,1
2023-02-17T00:27:14.257Z,1
2023-02-17T00:28:14.991Z,1
2023-02-17T00:29:14.718Z,1
2023-02-17T00:30:14.854Z,1
2023-02-17T00:31:15.377Z,1
2023-02-17T00:32:15.180Z,3
2023-02-17T00:33:14.212Z,3
2023-02-17T00:34:14.936Z,3
2023-02-17T00:35:14.692Z,3
2023-02-17T00:36:15.335Z,3
2023-02-17T00:37:13.913Z,3
2023-02-17T00:38:14.845Z,3
2023-02-17T00:39:14.550Z,3
2023-02-17T00:40:14.023Z,3
2023-02-17T00:41:14.954Z,3
2023-02-17T00:42:14.406Z,3
2023-02-17T00:43:14.196Z,3
2023-02-17T00:44:15.106Z,3
2023-02-17T00:45:14.613Z,3
2023-02-17T00:46:15.924Z,3
2023-02-17T00:47:14.164Z,1
2023-02-17T00:48:14.287Z,1
2023-02-17T00:49:14.679Z,1
2023-02-17T00:50:14.536Z,1
2023-02-17T00:51:14.182Z,1
2023-02-17T00:52:14.770Z,1
2023-02-17T00:53:14.453Z,1
2023-02-17T00:54:14.027Z,1
2023-02-17T00:55:13.918Z,1
2023-02-17T00:56:15.369Z,1
2023-02-17T00:57:14.443Z,1
2023-02-17T00:58:14.129Z,1
2023-02-17T00:59:14.927Z,1
2023-02-17T01:00:14.564Z,1
2023-02-17T01:01:14.428Z,1
2023-02-17T01:02:14.482Z,1
2023-02-17T01:03:14.150Z,1
2023-02-17T01:04:14.858Z,1
2023-02-17T01:05:14.506Z,1
2023-02-17T01:06:14.914Z,1
2023-02-17T01:07:14.963Z,1
2023-02-17T01:08:14.842Z,1
2023-02-17T01:09:14.559Z,1
2023-02-17T01:10:14.416Z,1
2023-02-17T01:11:13.952Z,1
2023-02-17T01:12:14.662Z,1
2023-02-17T01:13:14.379Z,1
2023-02-17T01:14:14.011Z,1
2023-02-17T01:15:14.865Z,1
2023-02-17T01:16:15.562Z,1
2023-02-17T01:17:14.278Z,3
2023-02-17T01:18:14.870Z,3
2023-02-17T01:19:14.414Z,3
2023-02-17T01:20:14.316Z,3
2023-02-17T01:21:14.718Z,3
2023-02-17T01:22:14.572Z,3
2023-02-17T01:23:14.742Z,3
2023-02-17T01:24:14.621Z,3
2023-02-17T01:25:15.069Z,3
2023-02-17T01:26:15.702Z,3
2023-02-17T01:27:14.900Z,3
2023-02-17T01:28:14.595Z,3
2023-02-17T01:29:14.314Z,3
2023-02-17T01:30:15.093Z,3
2023-02-17T01:31:15.240Z,3
2023-02-17T01:32:14.326Z,0
2023-02-17T01:33:14.613Z,0
2023-02-17T01:34:14.469Z,0
2023-02-17T01:35:14.038Z,0
2023-02-17T01:36:15.389Z,0
2023-02-17T01:37:14.499Z,0
2023-02-17T01:38:14.029Z,0
2023-02-17T01:39:14.751Z,0
2023-02-17T01:40:14.376Z,0
2023-02-17T01:41:14.032Z,0
2023-02-17T01:42:14.875Z,0
2023-02-17T01:43:14.446Z,0
2023-02-17T01:44:14.131Z,0
2023-02-17T01:45:14.757Z,0
2023-02-17T01:46:15.699Z,0
2023-02-17T01:47:14.731Z,0
2023-02-17T01:48:14.290Z,0
2023-02-17T01:49:14.070Z,0
2023-02-17T01:50:14.761Z,0
2023-02-17T01:51:14.582Z,0
2023-02-17T01:52:14.345Z,0
2023-02-17T01:53:14.972Z,0
2023-02-17T01:54:14.898Z,0
2023-02-17T01:55:14.333Z,0
2023-02-17T01:56:14.944Z,0
2023-02-17T01:57:14.970Z,0
2023-02-17T01:58:14.545Z,0
2023-02-17T01:59:14.386Z,0
2023-02-17T02:00:14.261Z,0
2023-02-17T02:01:14.703Z,0
2023-02-17T02:02:15.317Z,0
2023-02-17T02:03:14.341Z,0
2023-02-17T02:04:15.064Z,0
2023-02-17T02:05:14.610Z,0
2023-02-17T02:06:15.347Z,0
2023-02-17T02:07:14.063Z,0
2023-02-17T02:08:13.956Z,0
2023-02-17T02:09:14.983Z,0
2023-02-17T02:10:14.596Z,0
2023-02-17T02:11:14.121Z,0
2023-02-17T02:12:14.882Z,0
2023-02-17T02:13:14.509Z,0
2023-02-17T02:14:14.343Z,0
2023-02-17T02:15:14.124Z,0
2023-02-17T02:17:14.656Z,0
2023-02-17T02:18:14.182Z,0
2023-02-17T02:19:14.287Z,0
2023-02-17T02:20:14.946Z,0
2023-02-17T02:21:14.317Z,0
2023-02-17T02:22:14.407Z,0
2023-02-17T02:23:15.161Z,0
2023-02-17T02:24:14.669Z,0
2023-02-17T02:25:14.315Z,0
2023-02-17T02:26:15.082Z,0
2023-02-17T02:27:14.639Z,0
2023-02-17T02:28:14.464Z,0
2023-02-17T02:29:14.166Z,0
2023-02-17T02:30:15.228Z,0
2023-02-17T02:31:15.055Z,0
2023-02-17T02:32:14.351Z,0
2023-02-17T02:33:13.957Z,0
2023-02-17T02:34:14.726Z,0
2023-02-17T02:35:14.714Z,0
2023-02-17T02:36:15.123Z,0
2023-02-17T02:37:14.164Z,0
2023-02-17T02:39:14.520Z,0
2023-02-17T02:40:14.160Z,0
2023-02-17T02:41:15.029Z,0
2023-02-17T02:42:14.577Z,0
2023-02-17T02:43:14.094Z,0
2023-02-17T02:44:13.887Z,0
2023-02-17T02:45:14.906Z,0
2023-02-17T02:47:14.129Z,0
2023-02-17T02:48:14.729Z,0
2023-02-17T02:49:14.454Z,0
2023-02-17T02:50:14.008Z,0
2023-02-17T02:51:15.154Z,0
2023-02-17T02:52:14.441Z,0
2023-02-17T02:53:14.244Z,0
2023-02-17T02:54:15.725Z,0
2023-02-17T02:55:14.700Z,0
2023-02-17T02:56:15.078Z,0
2023-02-17T02:57:13.969Z,0
2023-02-17T02:58:14.816Z,0
2023-02-17T02:59:14.447Z,0
2023-02-17T03:00:14.087Z,0
2023-02-17T03:01:15.443Z,0
2023-02-17T03:02:14.568Z,0
2023-02-17T03:03:14.224Z,0
2023-02-17T03:04:15.137Z,0
2023-02-17T03:05:14.462Z,0
2023-02-17T03:06:15.101Z,0
2023-02-17T03:07:14.055Z,0
2023-02-17T03:08:14.831Z,0
2023-02-17T03:09:14.294Z,0
2023-02-17T03:10:14.310Z,0
2023-02-17T03:11:14.892Z,0
2023-02-17T03:12:14.449Z,0
2023-02-17T03:13:14.330Z,0
2023-02-17T03:14:13.943Z,0
2023-02-17T03:15:14.738Z,0
2023-02-17T03:16:15.079Z,0
2023-02-17T03:17:14.883Z,1
2023-02-17T03:18:14.648Z,1
2023-02-17T03:19:14.328Z,1
2023-02-17T03:20:14.032Z,1
2023-02-17T03:21:14.862Z,1
2023-02-17T03:22:14.473Z,1
2023-02-17T03:23:14.207Z,1
2023-02-17T03:24:14.833Z,1
2023-02-17T03:25:14.360Z,1
2023-02-17T03:26:14.967Z,1
2023-02-17T03:27:14.878Z,1
2023-02-17T03:28:14.593Z,1
2023-02-17T03:29:14.218Z,1
2023-02-17T03:30:15.186Z,1
2023-02-17T03:31:14.460Z,1
2023-02-17T03:32:14.279Z,0
2023-02-17T03:33:14.834Z,0
2023-02-17T03:34:14.437Z,0
2023-02-17T03:35:14.285Z,0
2023-02-17T03:36:15.614Z,0
2023-02-17T03:37:14.425Z,0
2023-02-17T03:38:14.225Z,0
2023-02-17T03:39:14.730Z,0
2023-02-17T03:40:14.388Z,0
2023-02-17T03:41:14.135Z,0
2023-02-17T03:42:14.938Z,0
2023-02-17T03:43:14.754Z,0
2023-02-17T03:44:14.401Z,0
2023-02-17T03:45:15.100Z,0
2023-02-17T03:46:15.849Z,0
2023-02-17T03:47:14.300Z,1
2023-02-17T03:48:14.050Z,1
2023-02-17T03:50:14.438Z,1
2023-02-17T03:51:14.192Z,1
2023-02-17T03:52:15.002Z,1
2023-02-17T03:53:14.344Z,1
2023-02-17T03:54:14.096Z,1
2023-02-17T03:55:14.867Z,1
2023-02-17T03:56:15.388Z,1
2023-02-17T03:57:14.427Z,1
2023-02-17T03:58:13.898Z,1
2023-02-17T03:59:14.573Z,1
2023-02-17T04:00:14.394Z,1
2023-02-17T04:01:15.293Z,1
2023-02-17T04:02:14.624Z,5
2023-02-17T04:03:14.021Z,5
2023-02-17T04:04:15.071Z,5
2023-02-17T04:05:14.716Z,5
2023-02-17T04:06:15.430Z,5
2023-02-17T04:07:14.159Z,5
2023-02-17T04:08:14.874Z,5
2023-02-17T04:09:14.445Z,5
2023-02-17T04:11:14.961Z,5
2023-02-17T04:12:14.820Z,5
2023-02-17T04:13:14.543Z,5
2023-02-17T04:14:14.462Z,5
2023-02-17T04:15:14.689Z,5
2023-02-17T04:16:15.285Z,5
2023-02-17T04:17:14.704Z,5
2023-02-17T04:18:14.425Z,5
2023-02-17T04:19:14.158Z,5
2023-02-17T04:20:14.839Z,5
2023-02-17T04:21:14.333Z,5
2023-02-17T04:22:14.425Z,5
2023-02-17T04:23:14.310Z,5
2023-02-17T04:24:14.945Z,5
2023-02-17T04:25:14.477Z,5
2023-02-17T04:26:14.694Z,5
2023-02-17T04:27:14.820Z,5
2023-02-17T04:28:14.579Z,5
2023-02-17T04:29:14.336Z,5
2023-02-17T04:31:15.071Z,5
2023-02-17T04:32:15.307Z,7
2023-02-17T04:33:14.514Z,7
2023-02-17T04:34:14.375Z,7
2023-02-17T04:35:14.040Z,7
2023-02-17T04:36:15.806Z,7
2023-02-17T04:37:14.732Z,7
2023-02-17T04:38:14.340Z,7
2023-02-17T04:39:14.956Z,7
2023-02-17T04:40:14.790Z,7
2023-02-17T04:41:14.312Z,7
2023-02-17T04:42:13.945Z,7
2023-02-17T04:43:14.571Z,7
2023-02-17T04:44:14.281Z,7
2023-02-17T04:45:14.003Z,7
2023-02-17T04:46:16.092Z,7
2023-02-17T04:47:14.208Z,7
2023-02-17T04:48:14.162Z,7
2023-02-17T04:49:14.745Z,7
2023-02-17T04:50:14.600Z,7
2023-02-17T04:51:14.218Z,7
2023-02-17T04:52:14.977Z,7
2023-02-17T04:53:14.463Z,7
2023-02-17T04:54:14.335Z,7
2023-02-17T04:55:14.245Z,7
2023-02-17T04:56:15.517Z,7
2023-02-17T04:57:14.395Z,7
2023-02-17T04:58:14.845Z,7
2023-02-17T04:59:14.699Z,7
2023-02-17T05:00:14.603Z,7
2023-02-17T05:01:14.794Z,7
2023-02-17T05:02:14.302Z,7
2023-02-17T05:03:14.117Z,7
2023-02-17T05:04:14.609Z,7
2023-02-17T05:05:14.805Z,7
2023-02-17T05:06:15.184Z,7
2023-02-17T05:07:13.883Z,7
2023-02-17T05:08:14.860Z,7
2023-02-17T05:09:14.255Z,7
2023-02-17T05:10:14.168Z,7
2023-02-17T05:11:14.734Z,7
2023-02-17T05:12:14.487Z,7
2023-02-17T05:13:14.413Z,7
2023-02-17T05:14:14.897Z,7
2023-02-17T05:15:14.674Z,7
2023-02-17T05:16:15.699Z,7
2023-02-17T05:17:14.046Z,8
2023-02-17T05:18:14.756Z,8
2023-02-17T05:19:14.625Z,8
2023-02-17T05:20:14.063Z,8
2023-02-17T05:21:14.609Z,8
2023-02-17T05:22:14.449Z,8
2023-02-17T05:23:14.329Z,8
2023-02-17T05:24:14.153Z,8
2023-02-17T05:25:14.565Z,8
2023-02-17T05:26:15.336Z,8
2023-02-17T05:27:14.224Z,8
2023-02-17T05:28:14.941Z,8
2023-02-17T05:29:14.359Z,8
2023-02-17T05:30:14.570Z,8
2023-02-17T05:31:14.497Z,8
2023-02-17T05:32:15.325Z,1
2023-02-17T05:33:14.734Z,1
2023-02-17T05:34:14.310Z,1
2023-02-17T05:35:13.902Z,1
2023-02-17T05:36:15.645Z,1
2023-02-17T05:37:14.164Z,1
2023-02-17T05:38:14.000Z,1
2023-02-17T05:39:14.714Z,1
2023-02-17T05:40:14.372Z,1
2023-02-17T05:41:14.136Z,1
2023-02-17T05:42:14.895Z,1
2023-02-17T05:43:14.447Z,1
2023-02-17T05:44:14.204Z,1
2023-02-17T05:45:14.857Z,1
2023-02-17T05:46:15.879Z,1
2023-02-17T05:47:14.042Z,6
2023-02-17T05:48:13.973Z,6
2023-02-17T05:49:14.747Z,6
2023-02-17T05:50:14.556Z,6
2023-02-17T05:51:14.227Z,6
2023-02-17T05:52:14.851Z,6
2023-02-17T05:53:14.565Z,6
2023-02-17T05:54:14.158Z,6
2023-02-17T05:55:15.088Z,6
2023-02-17T05:56:15.873Z,6
2023-02-17T05:57:14.456Z,6
2023-02-17T05:58:14.096Z,6
2023-02-17T05:59:14.638Z,6
2023-02-17T06:00:14.412Z,6
2023-02-17T06:01:14.680Z,6
2023-02-17T06:02:14.252Z,4
2023-02-17T06:03:15.380Z,4
2023-02-17T06:04:14.870Z,4
2023-02-17T06:05:15.076Z,4
2023-02-17T06:06:15.016Z,4
2023-02-17T06:07:14.305Z,4
2023-02-17T06:08:14.953Z,4
2023-02-17T06:09:14.697Z,4
2023-02-17T06:10:14.390Z,4
2023-02-17T06:11:14.180Z,4
2023-02-17T06:12:14.972Z,4
2023-02-17T06:13:14.669Z,4
2023-02-17T06:14:14.491Z,4
2023-02-17T06:15:14.194Z,4
2023-02-17T06:17:15.046Z,4
2023-02-17T06:18:14.771Z,4
2023-02-17T06:19:14.238Z,4
2023-02-17T06:20:14.737Z,4
2023-02-17T06:21:14.651Z,4
2023-02-17T06:22:14.105Z,4
2023-02-17T06:23:14.743Z,4
2023-02-17T06:24:14.724Z,4
2023-02-17T06:25:14.455Z,4
2023-02-17T06:26:15.849Z,4
2023-02-17T06:27:14.573Z,4
2023-02-17T06:28:14.299Z,4
2023-02-17T06:29:15.159Z,4
2023-02-17T06:30:14.894Z,4
2023-02-17T06:31:15.278Z,4
2023-02-17T06:32:14.853Z,8
2023-02-17T06:33:14.838Z,8
2023-02-17T06:35:14.333Z,8
2023-02-17T06:36:15.889Z,8
2023-02-17T06:37:14.627Z,8
2023-02-17T06:38:14.695Z,8
2023-02-17T06:39:14.094Z,8
2023-02-17T06:40:14.671Z,8
2023-02-17T06:41:14.490Z,8
2023-02-17T06:42:14.289Z,8
2023-02-17T06:43:14.046Z,8
2023-02-17T06:44:14.575Z,8
2023-02-17T06:45:14.347Z,8
2023-02-17T06:47:14.255Z,3
2023-02-17T06:48:14.190Z,3
2023-02-17T06:49:14.907Z,3
2023-02-17T06:50:14.376Z,3
2023-02-17T06:51:14.116Z,3
2023-02-17T06:52:14.851Z,3
2023-02-17T06:53:14.513Z,3
2023-02-17T06:54:14.497Z,3
2023-02-17T06:55:15.043Z,3
2023-02-17T06:56:15.511Z,3
2023-02-17T06:57:14.295Z,3
2023-02-17T06:58:14.110Z,3
2023-02-17T06:59:14.967Z,3
2023-02-17T07:00:14.569Z,3
2023-02-17T07:01:14.940Z,3
2023-02-17T07:03:14.758Z,12
2023-02-17T07:04:15.007Z,12
2023-02-17T07:05:14.670Z,12
2023-02-17T07:06:14.915Z,12
2023-02-17T07:07:14.818Z,12
2023-02-17T07:08:14.482Z,12
2023-02-17T07:09:14.147Z,12
2023-02-17T07:10:15.116Z,12
2023-02-17T07:11:14.736Z,12
2023-02-17T07:12:14.323Z,12
2023-02-17T07:13:14.146Z,12
2023-02-17T07:14:14.874Z,12
2023-02-17T07:17:14.547Z,12
2023-02-17T07:18:14.206Z,12
2023-02-17T07:19:14.862Z,12
2023-02-17T07:20:14.638Z,12
2023-02-17T07:21:14.474Z,12
2023-02-17T07:22:13.881Z,12
2023-02-17T07:23:15.192Z,12
2023-02-17T07:24:14.752Z,12
2023-02-17T07:25:14.315Z,12
2023-02-17T07:26:14.990Z,12
2023-02-17T07:28:14.513Z,12
2023-02-17T07:29:14.107Z,12
2023-02-17T07:30:15.269Z,12
2023-02-17T07:31:14.770Z,12
2023-02-17T07:32:15.369Z,12
2023-02-17T07:34:14.589Z,12
2023-02-17T07:35:14.395Z,12
2023-02-17T07:36:14.940Z,12
2023-02-17T07:37:14.693Z,12
2023-02-17T07:38:14.564Z,12
2023-02-17T07:39:14.275Z,12
2023-02-17T07:40:14.129Z,12
2023-02-17T07:41:14.723Z,12
2023-02-17T07:42:14.477Z,12
2023-02-17T07:43:14.094Z,12
2023-02-17T07:44:14.833Z,12
2023-02-17T07:45:14.473Z,12
2023-02-17T07:46:15.896Z,12
2023-02-17T07:47:14.151Z,12
2023-02-17T07:48:14.736Z,12
2023-02-17T07:49:14.662Z,12
2023-02-17T07:50:14.500Z,12
2023-02-17T07:51:14.214Z,12
2023-02-17T07:53:14.380Z,12
2023-02-17T07:54:14.967Z,12
2023-02-17T07:55:14.354Z,12
2023-02-17T07:56:15.289Z,12
2023-02-17T07:57:15.119Z,12
2023-02-17T07:58:14.696Z,12
2023-02-17T07:59:14.750Z,12
2023-02-17T08:01:14.240Z,12
2023-02-17T08:02:15.371Z,15
2023-02-17T08:03:14.711Z,15
2023-02-17T08:04:14.727Z,15
2023-02-17T08:05:15.053Z,15
2023-02-17T08:07:14.526Z,15
2023-02-17T08:08:14.068Z,15
2023-02-17T08:09:14.962Z,15
2023-02-17T08:10:14.698Z,15
2023-02-17T08:11:15.466Z,15
2023-02-17T08:12:14.187Z,15
2023-02-17T08:13:14.014Z,15
2023-02-17T08:15:14.623Z,15
2023-02-17T08:16:15.451Z,15
2023-02-17T08:17:14.066Z,18
2023-02-17T08:18:15.239Z,18
2023-02-17T08:21:15.857Z,18
2023-02-17T08:22:14.785Z,18
2023-02-17T08:23:14.423Z,18
2023-02-17T08:24:14.269Z,18
2023-02-17T08:25:14.965Z,18
2023-02-17T08:26:15.666Z,18
2023-02-17T08:27:14.299Z,18
2023-02-17T08:28:14.899Z,18
2023-02-17T08:29:14.475Z,18
2023-02-17T08:30:14.806Z,18
2023-02-17T08:31:15.723Z,18
2023-02-17T08:32:15.194Z,27
2023-02-17T08:33:15.033Z,27
2023-02-17T08:34:14.799Z,27
2023-02-17T08:35:14.442Z,27
2023-02-17T08:36:15.006Z,27
2023-02-17T08:37:15.187Z,27
2023-02-17T08:38:14.544Z,27
2023-02-17T08:39:14.283Z,27
2023-02-17T08:40:14.954Z,27
2023-02-17T08:41:14.975Z,27
2023-02-17T08:42:14.567Z,27
2023-02-17T08:44:14.354Z,27
2023-02-17T08:45:14.919Z,27
2023-02-17T08:47:14.779Z,27
2023-02-17T08:48:14.806Z,27
2023-02-17T08:49:14.397Z,27
2023-02-17T08:50:14.810Z,27
2023-02-17T08:51:14.899Z,27
2023-02-17T08:52:14.631Z,27
2023-02-17T08:53:14.355Z,27
2023-02-17T08:54:14.175Z,27
2023-02-17T08:55:14.993Z,27
2023-02-17T08:56:15.759Z,27
2023-02-17T08:57:14.539Z,27
2023-02-17T08:58:14.591Z,27
2023-02-17T08:59:14.946Z,27
2023-02-17T09:01:14.910Z,27
2023-02-17T09:02:14.599Z,24
2023-02-17T09:03:14.915Z,24
2023-02-17T09:04:14.709Z,24
2023-02-17T09:05:14.936Z,24
2023-02-17T09:06:14.991Z,24
2023-02-17T09:07:15.222Z,24
2023-02-17T09:08:14.969Z,24
2023-02-17T09:09:14.358Z,24
2023-02-17T09:10:14.147Z,24
2023-02-17T09:12:14.255Z,24
2023-02-17T09:13:14.438Z,24
2023-02-17T09:14:15.197Z,24
2023-02-17T09:15:14.675Z,24
2023-02-17T09:17:14.556Z,27
2023-02-17T09:18:14.631Z,27
2023-02-17T09:19:14.195Z,27
2023-02-17T09:20:33.151Z,27
2023-02-17T09:21:14.137Z,27
2023-02-17T09:22:34.190Z,27
2023-02-17T09:23:14.203Z,27
2023-02-17T09:24:15.088Z,27
2023-02-17T09:25:14.914Z,27
2023-02-17T09:26:15.512Z,27
2023-02-17T09:27:14.064Z,27
2023-02-17T09:28:14.429Z,27
2023-02-17T09:29:14.605Z,27
2023-02-17T09:30:14.467Z,27
2023-02-17T09:31:15.475Z,27
2023-02-17T09:32:15.517Z,37
2023-02-17T09:33:13.998Z,37
2023-02-17T09:34:15.018Z,37
2023-02-17T09:35:14.635Z,37
2023-02-17T09:36:15.291Z,37
2023-02-17T09:37:15.104Z,37
2023-02-17T09:38:14.735Z,37
2023-02-17T09:40:15.060Z,37
2023-02-17T09:41:14.798Z,37
2023-02-17T09:42:14.546Z,37
2023-02-17T09:43:14.214Z,37
2023-02-17T09:44:14.911Z,37
2023-02-17T09:46:15.705Z,37
2023-02-17T09:48:14.918Z,17
2023-02-17T09:49:14.519Z,17
2023-02-17T09:50:14.110Z,17
2023-02-17T09:52:14.315Z,17
2023-02-17T09:53:15.266Z,17
2023-02-17T09:54:14.772Z,17
2023-02-17T09:55:14.567Z,17
2023-02-17T09:57:14.906Z,17
2023-02-17T09:58:14.528Z,17
2023-02-17T09:59:15.017Z,17
2023-02-17T10:00:14.698Z,17
2023-02-17T10:01:14.578Z,17
2023-02-17T10:02:14.134Z,20
2023-02-17T10:04:15.124Z,20
2023-02-17T10:05:14.886Z,20
2023-02-17T10:07:14.698Z,20
2023-02-17T10:08:14.890Z,20
2023-02-17T10:10:14.804Z,20
2023-02-17T10:11:14.853Z,20
2023-02-17T10:12:14.127Z,20
2023-02-17T10:13:15.006Z,20
2023-02-17T10:14:14.753Z,20
2023-02-17T10:16:16.095Z,20
2023-02-17T10:17:14.737Z,12
2023-02-17T10:18:14.558Z,12
2023-02-17T10:19:14.398Z,12
2023-02-17T10:20:15.167Z,12
2023-02-17T10:22:14.440Z,12
2023-02-17T10:23:14.973Z,12
2023-02-17T10:24:14.976Z,12
2023-02-17T10:25:14.521Z,12
2023-02-17T10:27:14.756Z,12
2023-02-17T10:28:14.768Z,12
2023-02-17T10:29:14.668Z,12
2023-02-17T10:30:14.703Z,12
2023-02-17T10:31:14.923Z,12
2023-02-17T10:32:17.760Z,35
2023-02-17T10:33:14.791Z,35
2023-02-17T10:34:15.188Z,35
2023-02-17T10:35:14.745Z,35
2023-02-17T10:36:15.383Z,35
2023-02-17T10:37:15.150Z,35
2023-02-17T10:38:15.230Z,35
2023-02-17T10:39:14.568Z,35
2023-02-17T10:40:14.464Z,35
2023-02-17T10:41:14.323Z,35
2023-02-17T10:42:14.826Z,35
2023-02-17T10:44:14.107Z,35
2023-02-17T10:45:14.847Z,35
2023-02-17T10:46:15.813Z,35
2023-02-17T10:47:14.130Z,28
2023-02-17T10:48:15.132Z,28
2023-02-17T10:50:14.304Z,28
2023-02-17T10:51:14.060Z,28
2023-02-17T10:52:14.834Z,28
2023-02-17T10:53:14.587Z,28
2023-02-17T10:54:14.327Z,28
2023-02-17T10:55:32.739Z,28
2023-02-17T10:57:14.430Z,28
2023-02-17T10:58:14.342Z,28
2023-02-17T10:59:14.028Z,28
2023-02-17T11:00:14.766Z,28
2023-02-17T11:01:15.636Z,28
2023-02-17T11:02:14.764Z,33
2023-02-17T11:03:14.535Z,33
2023-02-17T11:05:14.463Z,33
2023-02-17T11:06:14.899Z,33
2023-02-17T11:07:14.043Z,33
2023-02-17T11:08:14.944Z,33
2023-02-17T11:09:14.770Z,33
2023-02-17T11:11:14.064Z,33
2023-02-17T11:12:14.555Z,33
2023-02-17T11:13:14.170Z,33
2023-02-17T11:14:15.031Z,33
2023-02-17T11:15:14.647Z,33
2023-02-17T11:17:14.544Z,23
2023-02-17T11:18:15.070Z,23
2023-02-17T11:20:15.178Z,23
2023-02-17T11:21:14.820Z,23
2023-02-17T11:23:14.670Z,23
2023-02-17T11:24:14.520Z,23
2023-02-17T11:25:14.206Z,23
2023-02-17T11:26:15.837Z,23
2023-02-17T11:27:14.657Z,23
2023-02-17T11:28:14.395Z,23
2023-02-17T11:29:14.798Z,23
2023-02-17T11:30:15.002Z,23
2023-02-17T11:31:15.078Z,23
2023-02-17T11:32:14.786Z,20
2023-02-17T11:33:14.843Z,20
2023-02-17T11:34:14.603Z,20
2023-02-17T11:35:14.153Z,20
2023-02-17T11:36:15.773Z,20
2023-02-17T11:37:14.671Z,20
2023-02-17T11:38:14.513Z,20
2023-02-17T11:39:14.311Z,20
2023-02-17T11:40:14.870Z,20
2023-02-17T11:41:14.474Z,20
2023-02-17T11:42:14.494Z,20
2023-02-17T11:43:14.110Z,20
2023-02-17T11:44:14.790Z,20
2023-02-17T11:45:14.300Z,20
2023-02-17T11:47:14.781Z,27
2023-02-17T11:48:14.386Z,27
2023-02-17T11:49:14.165Z,27
2023-02-17T11:50:14.803Z,27
2023-02-17T11:51:14.585Z,27
2023-02-17T11:52:14.448Z,27
2023-02-17T11:53:14.129Z,27
2023-02-17T11:54:14.722Z,27
2023-02-17T11:55:14.482Z,27
2023-02-17T11:56:15.083Z,27
2023-02-17T11:57:14.744Z,27
2023-02-17T11:58:14.542Z,27
2023-02-17T11:59:14.275Z,27
2023-02-17T12:00:14.140Z,27
2023-02-17T12:01:14.817Z,27
2023-02-17T12:02:14.297Z,28
2023-02-17T12:03:14.452Z,28
2023-02-17T12:04:14.761Z,28
2023-02-17T12:05:15.147Z,28
2023-02-17T12:06:15.344Z,28
2023-02-17T12:07:14.163Z,28
2023-02-17T12:08:14.803Z,28
2023-02-17T12:09:14.576Z,28
2023-02-17T12:10:14.044Z,28
2023-02-17T12:11:14.254Z,28
2023-02-17T12:12:14.816Z,28
2023-02-17T12:13:14.561Z,28
2023-02-17T12:14:14.127Z,28
2023-02-17T12:15:14.801Z,28
2023-02-17T12:16:15.653Z,28
2023-02-17T12:17:14.049Z,44
2023-02-17T12:18:15.010Z,44
2023-02-17T12:19:14.585Z,44
2023-02-17T12:20:14.270Z,44
2023-02-17T12:21:14.903Z,44
2023-02-17T12:22:14.596Z,44
2023-02-17T12:23:14.377Z,44
2023-02-17T12:24:15.070Z,44
2023-02-17T12:26:15.097Z,44
2023-02-17T12:27:14.357Z,44
2023-02-17T12:28:13.993Z,44
2023-02-17T12:29:14.621Z,44
2023-02-17T12:30:15.018Z,44
2023-02-17T12:32:15.252Z,28
2023-02-17T12:33:14.135Z,28
2023-02-17T12:34:14.778Z,28
2023-02-17T12:35:14.257Z,28
2023-02-17T12:36:14.743Z,28
2023-02-17T12:37:14.810Z,28
2023-02-17T12:38:14.761Z,28
2023-02-17T12:39:14.289Z,28
2023-02-17T12:40:15.042Z,28
2023-02-17T12:41:14.732Z,28
2023-02-17T12:42:14.575Z,28
2023-02-17T12:43:13.968Z,28
2023-02-17T12:44:14.907Z,28
2023-02-17T12:45:14.796Z,28
2023-02-17T12:47:14.200Z,25
2023-02-17T12:48:14.080Z,25
2023-02-17T12:50:14.721Z,25
2023-02-17T12:51:14.491Z,25
2023-02-17T12:52:14.145Z,25
2023-02-17T12:53:14.863Z,25
2023-02-17T12:54:14.198Z,25
2023-02-17T12:55:14.102Z,25
2023-02-17T12:56:15.612Z,25
2023-02-17T12:57:14.664Z,25
2023-02-17T12:58:14.392Z,25
2023-02-17T12:59:14.056Z,25
2023-02-17T13:00:14.460Z,25
2023-02-17T13:01:17.961Z,25
2023-02-17T13:02:14.794Z,37
2023-02-17T13:03:14.768Z,37
2023-02-17T13:04:14.820Z,37
2023-02-17T13:05:14.293Z,37
2023-02-17T13:06:15.161Z,37
2023-02-17T13:07:14.385Z,37
2023-02-17T13:08:14.968Z,37
2023-02-17T13:09:14.871Z,37
2023-02-17T13:10:14.354Z,37
2023-02-17T13:11:14.363Z,37
2023-02-17T13:12:14.830Z,37
2023-02-17T13:13:14.547Z,37
2023-02-17T13:14:14.336Z,37
2023-02-17T13:15:14.990Z,37
2023-02-17T13:17:14.469Z,32
2023-02-17T13:18:14.397Z,32
2023-02-17T13:19:14.921Z,32
2023-02-17T13:20:14.722Z,32
2023-02-17T13:21:14.359Z,32
2023-02-17T13:22:14.110Z,32
2023-02-17T13:23:14.618Z,32
2023-02-17T13:24:14.292Z,32
2023-02-17T13:25:13.906Z,32
2023-02-17T13:26:15.564Z,32
2023-02-17T13:27:14.508Z,32
2023-02-17T13:28:14.248Z,32
2023-02-17T13:29:14.913Z,32
2023-02-17T13:30:14.919Z,32
2023-02-17T13:31:15.213Z,32
2023-02-17T13:32:15.724Z,35
2023-02-17T13:33:14.235Z,35
2023-02-17T13:34:14.860Z,35
2023-02-17T13:35:14.405Z,35
2023-02-17T13:36:14.910Z,35
2023-02-17T13:38:14.697Z,35
2023-02-17T13:39:14.292Z,35
2023-02-17T13:40:15.109Z,35
2023-02-17T13:41:14.592Z,35
2023-02-17T13:42:14.574Z,35
2023-02-17T13:43:14.386Z,35
2023-02-17T13:44:14.929Z,35
2023-02-17T13:45:14.589Z,35
2023-02-17T13:47:14.628Z,32
2023-02-17T13:48:14.331Z,32
2023-02-17T13:49:14.767Z,32
2023-02-17T13:50:14.780Z,32
2023-02-17T13:51:14.551Z,32
2023-02-17T13:52:13.938Z,32
2023-02-17T13:53:15.126Z,32
2023-02-17T13:54:14.716Z,32
2023-02-17T13:55:14.489Z,32
2023-02-17T13:56:15.727Z,32
2023-02-17T13:57:14.496Z,32
2023-02-17T13:58:14.384Z,32
2023-02-17T13:59:14.904Z,32
2023-02-17T14:00:14.620Z,32
2023-02-17T14:01:14.884Z,32
2023-02-17T14:02:16.136Z,27
2023-02-17T14:03:15.199Z,27
2023-02-17T14:04:14.556Z,27
2023-02-17T14:05:14.546Z,27
2023-02-17T14:06:14.481Z,27
2023-02-17T14:07:14.761Z,27
2023-02-17T14:08:14.514Z,27
2023-02-17T14:09:14.125Z,27
2023-02-17T14:10:14.837Z,27
2023-02-17T14:11:14.754Z,27
2023-02-17T14:12:14.263Z,27
2023-02-17T14:13:14.952Z,27
2023-02-17T14:14:14.819Z,27
2023-02-17T14:15:14.567Z,27
2023-02-17T14:16:15.749Z,27
2023-02-17T14:17:14.274Z,21
2023-02-17T14:18:14.784Z,21
2023-02-17T14:19:14.558Z,21
2023-02-17T14:20:14.413Z,21
2023-02-17T14:22:14.718Z,21
2023-02-17T14:25:15.008Z,21
2023-02-17T14:26:15.258Z,21
2023-02-17T14:27:14.333Z,21
2023-02-17T14:28:14.777Z,21
2023-02-17T14:29:14.413Z,21
2023-02-17T14:32:15.544Z,19
2023-02-17T14:33:14.484Z,19
2023-02-17T14:34:14.266Z,19
2023-02-17T14:35:14.798Z,19
2023-02-17T14:36:15.800Z,19
2023-02-17T14:37:14.163Z,19
2023-02-17T14:38:15.119Z,19
2023-02-17T14:39:14.839Z,19
2023-02-17T14:40:14.179Z,19
2023-02-17T14:41:15.109Z,19
2023-02-17T14:42:14.893Z,19
2023-02-17T14:43:14.459Z,19
2023-02-17T14:44:14.167Z,19
2023-02-17T14:45:14.929Z,19
2023-02-17T14:46:15.705Z,19
2023-02-17T14:47:14.164Z,21
2023-02-17T14:48:14.793Z,21
2023-02-17T14:49:14.369Z,21
2023-02-17T14:50:14.360Z,21
2023-02-17T14:51:15.095Z,21
2023-02-17T14:52:14.800Z,21
2023-02-17T14:53:14.596Z,21
2023-02-17T14:54:14.260Z,21
2023-02-17T14:55:14.819Z,21
2023-02-17T14:56:15.808Z,21
2023-02-17T14:57:14.586Z,21
2023-02-17T14:58:14.848Z,21
2023-02-17T14:59:14.395Z,21
2023-02-17T15:00:14.418Z,21
2023-02-17T15:01:14.181Z,21
2023-02-17T15:02:14.997Z,17
2023-02-17T15:03:14.738Z,17
2023-02-17T15:04:14.639Z,17
2023-02-17T15:05:14.304Z,17
2023-02-17T15:06:15.248Z,17
2023-02-17T15:07:14.681Z,17
2023-02-17T15:08:14.381Z,17
2023-02-17T15:09:15.070Z,17
2023-02-17T15:10:14.876Z,17
2023-02-17T15:11:14.605Z,17
2023-02-17T15:12:14.254Z,17
2023-02-17T15:13:15.116Z,17
2023-02-17T15:14:14.656Z,17
2023-02-17T15:15:14.369Z,17
2023-02-17T15:17:14.488Z,19
2023-02-17T15:18:14.135Z,19
2023-02-17T15:19:14.782Z,19
2023-02-17T15:20:14.419Z,19
2023-02-17T15:21:14.163Z,19
2023-02-17T15:22:14.834Z,19
2023-02-17T15:23:14.580Z,19
2023-02-17T15:24:14.101Z,19
2023-02-17T15:25:14.769Z,19
2023-02-17T15:26:15.367Z,19
2023-02-17T15:27:14.856Z,19
2023-02-17T15:28:14.713Z,19